sensor_id;sensor_type;location;lat;lon;timestamp;pressure;altitude;pressure_sealevel;temperature;humidity
65758;BME280;52495;52.208;5.158;2022-10-18T00:00:46;102513.22;;;14.74;100.00
65758;BME280;52495;52.208;5.158;2022-10-18T00:03:16;102519.31;;;14.71;100.00
65758;BME280;52495;52.208;5.158;2022-10-18T00:05:42;102511.50;;;14.69;100.00
65758;BME280;52495;52.208;5.158;2022-10-18T00:08:09;102517.56;;;14.67;100.00
65758;BME280;52495;52.208;5.158;2022-10-18T00:10:35;102520.19;;;14.62;100.00
65758;BME280;52495;52.208;5.158;2022-10-18T00:13:02;102523.69;;;14.61;100.00
65758;BME280;52495;52.208;5.158;2022-10-18T00:15:30;102516.75;;;14.60;100.00
65758;BME280;52495;52.208;5.158;2022-10-18T00:17:57;102512.44;;;14.57;100.00
65758;BME280;52495;52.208;5.158;2022-10-18T00:20:23;102523.72;;;14.55;99.87
65758;BME280;52495;52.208;5.158;2022-10-18T00:22:50;102513.31;;;14.52;99.80
65758;BME280;52495;52.208;5.158;2022-10-18T00:25:16;102509.91;;;14.50;99.59
65758;BME280;52495;52.208;5.158;2022-10-18T00:27:43;102510.75;;;14.47;99.63
65758;BME280;52495;52.208;5.158;2022-10-18T00:30:09;102508.19;;;14.44;99.23
65758;BME280;52495;52.208;5.158;2022-10-18T00:32:38;102507.34;;;14.42;99.27
65758;BME280;52495;52.208;5.158;2022-10-18T00:35:05;102504.78;;;14.36;98.88
65758;BME280;52495;52.208;5.158;2022-10-18T00:37:32;102513.47;;;14.32;99.02
65758;BME280;52495;52.208;5.158;2022-10-18T00:39:59;102522.13;;;14.27;99.07
65758;BME280;52495;52.208;5.158;2022-10-18T00:42:26;102526.50;;;14.27;99.22
65758;BME280;52495;52.208;5.158;2022-10-18T00:44:59;102527.34;;;14.26;99.05
65758;BME280;52495;52.208;5.158;2022-10-18T00:47:26;102523.03;;;14.25;98.81
65758;BME280;52495;52.208;5.158;2022-10-18T00:49:57;102523.06;;;14.20;98.19
65758;BME280;52495;52.208;5.158;2022-10-18T00:52:27;102531.72;;;14.16;97.97
65758;BME280;52495;52.208;5.158;2022-10-18T00:54:55;102527.44;;;14.14;98.34
65758;BME280;52495;52.208;5.158;2022-10-18T00:57:23;102520.50;;;14.09;98.14
65758;BME280;52495;52.208;5.158;2022-10-18T00:59:49;102520.53;;;14.08;97.82
65758;BME280;52495;52.208;5.158;2022-10-18T01:02:16;102522.25;;;14.04;98.03
65758;BME280;52495;52.208;5.158;2022-10-18T01:04:44;102526.63;;;14.01;97.72
65758;BME280;52495;52.208;5.158;2022-10-18T01:07:25;102536.16;;;13.97;97.59
65758;BME280;52495;52.208;5.158;2022-10-18T01:09:57;102539.63;;;13.93;97.42
65758;BME280;52495;52.208;5.158;2022-10-18T01:12:31;102538.78;;;13.91;97.71
65758;BME280;52495;52.208;5.158;2022-10-18T01:15:04;102542.25;;;13.88;96.97
65758;BME280;52495;52.208;5.158;2022-10-18T01:17:43;102537.91;;;13.86;96.89
65758;BME280;52495;52.208;5.158;2022-10-18T01:20:20;102532.75;;;13.81;97.23
65758;BME280;52495;52.208;5.158;2022-10-18T01:22:52;102540.56;;;13.73;96.82
65758;BME280;52495;52.208;5.158;2022-10-18T01:25:25;102539.72;;;13.66;96.70
65758;BME280;52495;52.208;5.158;2022-10-18T01:27:56;102538.00;;;13.61;97.01
65758;BME280;52495;52.208;5.158;2022-10-18T01:33:09;102540.59;;;13.55;97.79
65758;BME280;52495;52.208;5.158;2022-10-18T01:35:38;102545.78;;;13.51;97.66
65758;BME280;52495;52.208;5.158;2022-10-18T01:38:07;102557.03;;;13.50;97.80
65758;BME280;52495;52.208;5.158;2022-10-18T01:40:36;102557.06;;;13.47;97.68
65758;BME280;52495;52.208;5.158;2022-10-18T01:43:04;102547.56;;;13.46;97.68
65758;BME280;52495;52.208;5.158;2022-10-18T01:45:31;102539.75;;;13.48;97.56
65758;BME280;52495;52.208;5.158;2022-10-18T01:47:58;102550.13;;;13.48;97.64
65758;BME280;52495;52.208;5.158;2022-10-18T01:50:31;102534.56;;;13.48;97.30
65758;BME280;52495;52.208;5.158;2022-10-18T01:52:58;102540.63;;;13.47;97.24
65758;BME280;52495;52.208;5.158;2022-10-18T01:55:25;102544.97;;;13.46;97.21
65758;BME280;52495;52.208;5.158;2022-10-18T01:57:56;102547.56;;;13.43;97.47
65758;BME280;52495;52.208;5.158;2022-10-18T02:00:25;102555.31;;;13.45;97.57
65758;BME280;52495;52.208;5.158;2022-10-18T02:02:58;102552.75;;;13.43;97.88
65758;BME280;52495;52.208;5.158;2022-10-18T02:05:27;102554.47;;;13.43;97.59
65758;BME280;52495;52.208;5.158;2022-10-18T02:07:59;102555.31;;;13.42;97.45
65758;BME280;52495;52.208;5.158;2022-10-18T02:10:30;102553.63;;;13.41;97.43
65758;BME280;52495;52.208;5.158;2022-10-18T02:12:58;102551.03;;;13.41;97.72
65758;BME280;52495;52.208;5.158;2022-10-18T02:15:27;102552.72;;;13.39;97.63
65758;BME280;52495;52.208;5.158;2022-10-18T02:17:55;102563.09;;;13.39;97.20
65758;BME280;52495;52.208;5.158;2022-10-18T02:20:23;102564.81;;;13.38;97.47
65758;BME280;52495;52.208;5.158;2022-10-18T02:22:50;102556.19;;;13.38;97.50
65758;BME280;52495;52.208;5.158;2022-10-18T02:25:21;102563.97;;;13.34;96.80
65758;BME280;52495;52.208;5.158;2022-10-18T02:27:52;102559.66;;;13.32;97.07
65758;BME280;52495;52.208;5.158;2022-10-18T02:30:19;102559.66;;;13.30;96.73
65758;BME280;52495;52.208;5.158;2022-10-18T02:32:48;102560.50;;;13.26;96.87
65758;BME280;52495;52.208;5.158;2022-10-18T02:35:17;102560.50;;;13.26;97.10
65758;BME280;52495;52.208;5.158;2022-10-18T02:37:44;102549.28;;;13.21;97.20
65758;BME280;52495;52.208;5.158;2022-10-18T02:40:12;102552.72;;;13.21;96.94
65758;BME280;52495;52.208;5.158;2022-10-18T02:42:42;102557.91;;;13.18;97.03
65758;BME280;52495;52.208;5.158;2022-10-18T02:45:09;102557.91;;;13.15;97.38
65758;BME280;52495;52.208;5.158;2022-10-18T02:47:36;102561.41;;;13.14;97.16
65758;BME280;52495;52.208;5.158;2022-10-18T02:50:03;102562.25;;;13.13;97.89
65758;BME280;52495;52.208;5.158;2022-10-18T02:52:30;102566.59;;;13.14;97.82
65758;BME280;52495;52.208;5.158;2022-10-18T02:54:56;102563.97;;;13.13;97.70
65758;BME280;52495;52.208;5.158;2022-10-18T02:57:23;102562.25;;;13.12;97.96
65758;BME280;52495;52.208;5.158;2022-10-18T02:59:50;102559.66;;;13.12;97.96
65758;BME280;52495;52.208;5.158;2022-10-18T03:02:17;102559.66;;;13.12;97.51
65758;BME280;52495;52.208;5.158;2022-10-18T03:04:43;102563.09;;;13.11;97.68
65758;BME280;52495;52.208;5.158;2022-10-18T03:07:10;102569.16;;;13.08;97.03
65758;BME280;52495;52.208;5.158;2022-10-18T03:09:36;102570.03;;;13.04;97.08
65758;BME280;52495;52.208;5.158;2022-10-18T03:12:03;102558.78;;;13.02;97.24
65758;BME280;52495;52.208;5.158;2022-10-18T03:14:30;102557.06;;;13.01;97.53
65758;BME280;52495;52.208;5.158;2022-10-18T03:16:57;102558.81;;;12.96;97.41
65758;BME280;52495;52.208;5.158;2022-10-18T03:19:24;102556.19;;;12.93;97.39
65758;BME280;52495;52.208;5.158;2022-10-18T03:21:50;102558.78;;;12.94;97.87
65758;BME280;52495;52.208;5.158;2022-10-18T03:24:17;102552.75;;;12.97;97.57
65758;BME280;52495;52.208;5.158;2022-10-18T03:26:43;102558.78;;;12.97;97.79
65758;BME280;52495;52.208;5.158;2022-10-18T03:29:10;102556.22;;;12.96;97.32
65758;BME280;52495;52.208;5.158;2022-10-18T03:31:37;102570.88;;;12.95;96.87
65758;BME280;52495;52.208;5.158;2022-10-18T03:34:05;102580.38;;;12.90;96.82
65758;BME280;52495;52.208;5.158;2022-10-18T03:36:31;102572.63;;;12.87;96.85
65758;BME280;52495;52.208;5.158;2022-10-18T03:38:58;102573.47;;;12.84;96.96
65758;BME280;52495;52.208;5.158;2022-10-18T03:41:25;102581.22;;;12.77;97.14
65758;BME280;52495;52.208;5.158;2022-10-18T03:43:51;102576.88;;;12.72;97.39
65758;BME280;52495;52.208;5.158;2022-10-18T03:46:19;102577.78;;;12.71;97.59
65758;BME280;52495;52.208;5.158;2022-10-18T03:48:45;102591.59;;;12.70;97.64
65758;BME280;52495;52.208;5.158;2022-10-18T03:51:13;102582.09;;;12.71;97.44
65758;BME280;52495;52.208;5.158;2022-10-18T03:53:40;102584.69;;;12.71;97.57
65758;BME280;52495;52.208;5.158;2022-10-18T03:56:06;102575.19;;;12.71;97.28
65758;BME280;52495;52.208;5.158;2022-10-18T03:58:33;102566.53;;;12.71;96.96
65758;BME280;52495;52.208;5.158;2022-10-18T04:00:59;102566.53;;;12.68;96.99
65758;BME280;52495;52.208;5.158;2022-10-18T04:03:26;102566.53;;;12.66;97.42
65758;BME280;52495;52.208;5.158;2022-10-18T04:05:52;102566.50;;;12.65;97.44
65758;BME280;52495;52.208;5.158;2022-10-18T04:08:20;102560.50;;;12.63;97.58
65758;BME280;52495;52.208;5.158;2022-10-18T04:10:47;102563.06;;;12.64;98.16
65758;BME280;52495;52.208;5.158;2022-10-18T04:13:13;102557.88;;;12.66;98.37
65758;BME280;52495;52.208;5.158;2022-10-18T04:15:40;102563.91;;;12.65;98.44
65758;BME280;52495;52.208;5.158;2022-10-18T04:18:06;102570.84;;;12.66;98.33
65758;BME280;52495;52.208;5.158;2022-10-18T04:20:33;102573.44;;;12.69;98.78
65758;BME280;52495;52.208;5.158;2022-10-18T04:22:59;102567.41;;;12.71;98.19
65758;BME280;52495;52.208;5.158;2022-10-18T04:25:27;102563.09;;;12.70;98.10
65758;BME280;52495;52.208;5.158;2022-10-18T04:27:54;102563.06;;;12.69;98.64
65758;BME280;52495;52.208;5.158;2022-10-18T04:30:20;102566.53;;;12.69;98.60
65758;BME280;52495;52.208;5.158;2022-10-18T04:32:47;102566.53;;;12.69;98.66
65758;BME280;52495;52.208;5.158;2022-10-18T04:35:13;102566.53;;;12.69;98.82
65758;BME280;52495;52.208;5.158;2022-10-18T04:37:40;102563.06;;;12.69;98.40
65758;BME280;52495;52.208;5.158;2022-10-18T04:40:07;102562.22;;;12.64;98.58
65758;BME280;52495;52.208;5.158;2022-10-18T04:42:35;102565.66;;;12.63;99.27
65758;BME280;52495;52.208;5.158;2022-10-18T04:45:02;102566.53;;;12.66;99.39
65758;BME280;52495;52.208;5.158;2022-10-18T04:47:29;102560.50;;;12.70;99.28
65758;BME280;52495;52.208;5.158;2022-10-18T04:49:55;102571.72;;;12.74;99.37
65758;BME280;52495;52.208;5.158;2022-10-18T04:52:22;102576.91;;;12.74;98.91
65758;BME280;52495;52.208;5.158;2022-10-18T04:54:48;102577.75;;;12.74;99.03
65758;BME280;52495;52.208;5.158;2022-10-18T04:57:15;102572.59;;;12.78;98.78
65758;BME280;52495;52.208;5.158;2022-10-18T04:59:43;102576.06;;;12.78;98.56
65758;BME280;52495;52.208;5.158;2022-10-18T05:02:10;102576.91;;;12.75;98.31
65758;BME280;52495;52.208;5.158;2022-10-18T05:04:36;102578.63;;;12.73;98.13
65758;BME280;52495;52.208;5.158;2022-10-18T05:07:03;102581.22;;;12.70;98.19
65758;BME280;52495;52.208;5.158;2022-10-18T05:09:30;102589.84;;;12.68;98.37
65758;BME280;52495;52.208;5.158;2022-10-18T05:11:57;102587.25;;;12.68;98.38
65758;BME280;52495;52.208;5.158;2022-10-18T05:14:23;102598.50;;;12.70;98.73
65758;BME280;52495;52.208;5.158;2022-10-18T05:16:51;102589.88;;;12.69;98.34
65758;BME280;52495;52.208;5.158;2022-10-18T05:19:18;102588.97;;;12.64;98.53
65758;BME280;52495;52.208;5.158;2022-10-18T05:21:44;102599.34;;;12.69;98.35
65758;BME280;52495;52.208;5.158;2022-10-18T05:24:11;102595.88;;;12.67;98.44
65758;BME280;52495;52.208;5.158;2022-10-18T05:26:38;102605.41;;;12.68;98.60
65758;BME280;52495;52.208;5.158;2022-10-18T05:29:04;102602.81;;;12.69;98.71
65758;BME280;52495;52.208;5.158;2022-10-18T05:31:31;102611.44;;;12.70;98.56
65758;BME280;52495;52.208;5.158;2022-10-18T05:33:59;102615.78;;;12.69;98.34
65758;BME280;52495;52.208;5.158;2022-10-18T05:36:26;102616.66;;;12.68;98.26
65758;BME280;52495;52.208;5.158;2022-10-18T05:38:52;102608.84;;;12.62;98.06
65758;BME280;52495;52.208;5.158;2022-10-18T05:41:19;102610.56;;;12.60;98.60
65758;BME280;52495;52.208;5.158;2022-10-18T05:43:46;102612.31;;;12.59;98.40
65758;BME280;52495;52.208;5.158;2022-10-18T05:46:13;102609.69;;;12.53;97.89
65758;BME280;52495;52.208;5.158;2022-10-18T05:48:39;102620.03;;;12.53;98.13
65758;BME280;52495;52.208;5.158;2022-10-18T05:51:07;102619.16;;;12.51;98.26
65758;BME280;52495;52.208;5.158;2022-10-18T05:53:33;102617.44;;;12.50;98.52
65758;BME280;52495;52.208;5.158;2022-10-18T05:56:00;102621.75;;;12.51;98.59
65758;BME280;52495;52.208;5.158;2022-10-18T05:58:27;102625.19;;;12.45;98.12
65758;BME280;52495;52.208;5.158;2022-10-18T06:00:53;102642.44;;;12.39;98.36
65758;BME280;52495;52.208;5.158;2022-10-18T06:03:20;102652.81;;;12.40;98.54
65758;BME280;52495;52.208;5.158;2022-10-18T06:05:46;102638.09;;;12.33;98.24
65758;BME280;52495;52.208;5.158;2022-10-18T06:08:14;102633.78;;;12.37;99.01
65758;BME280;52495;52.208;5.158;2022-10-18T06:10:40;102645.88;;;12.38;98.80
65758;BME280;52495;52.208;5.158;2022-10-18T06:13:07;102656.25;;;12.36;98.87
65758;BME280;52495;52.208;5.158;2022-10-18T06:15:34;102648.44;;;12.32;98.80
65758;BME280;52495;52.208;5.158;2022-10-18T06:18:05;102661.41;;;12.32;98.91
65758;BME280;52495;52.208;5.158;2022-10-18T06:20:32;102657.94;;;12.28;98.60
65758;BME280;52495;52.208;5.158;2022-10-18T06:22:58;102660.56;;;12.29;98.94
65758;BME280;52495;52.208;5.158;2022-10-18T06:25:32;102660.53;;;12.31;98.88
65758;BME280;52495;52.208;5.158;2022-10-18T06:27:59;102667.44;;;12.29;98.85
65758;BME280;52495;52.208;5.158;2022-10-18T06:30:25;102665.72;;;12.33;99.02
65758;BME280;52495;52.208;5.158;2022-10-18T06:32:52;102670.91;;;12.34;99.05
65758;BME280;52495;52.208;5.158;2022-10-18T06:35:19;102676.94;;;12.35;98.71
65758;BME280;52495;52.208;5.158;2022-10-18T06:37:47;102679.53;;;12.35;98.45
65758;BME280;52495;52.208;5.158;2022-10-18T06:40:14;102675.22;;;12.34;98.16
65758;BME280;52495;52.208;5.158;2022-10-18T06:42:42;102689.91;;;12.28;97.68
65758;BME280;52495;52.208;5.158;2022-10-18T06:45:10;102692.47;;;12.25;97.53
65758;BME280;52495;52.208;5.158;2022-10-18T06:47:37;102688.09;;;12.23;97.73
65758;BME280;52495;52.208;5.158;2022-10-18T06:50:04;102700.19;;;12.19;97.23
65758;BME280;52495;52.208;5.158;2022-10-18T06:52:30;102696.75;;;12.20;97.80
65758;BME280;52495;52.208;5.158;2022-10-18T06:54:57;102702.78;;;12.19;97.76
65758;BME280;52495;52.208;5.158;2022-10-18T06:57:23;102701.91;;;12.16;97.41
65758;BME280;52495;52.208;5.158;2022-10-18T06:59:51;102708.78;;;12.13;97.52
65758;BME280;52495;52.208;5.158;2022-10-18T07:02:18;102706.22;;;12.18;97.87
65758;BME280;52495;52.208;5.158;2022-10-18T07:04:44;102710.53;;;12.18;97.90
65758;BME280;52495;52.208;5.158;2022-10-18T07:07:11;102715.72;;;12.18;98.01
65758;BME280;52495;52.208;5.158;2022-10-18T07:09:37;102723.50;;;12.18;98.21
65758;BME280;52495;52.208;5.158;2022-10-18T07:12:04;102716.59;;;12.20;98.21
65758;BME280;52495;52.208;5.158;2022-10-18T07:14:31;102713.16;;;12.22;98.27
65758;BME280;52495;52.208;5.158;2022-10-18T07:16:59;102708.84;;;12.26;98.03
65758;BME280;52495;52.208;5.158;2022-10-18T07:19:26;102717.50;;;12.26;97.83
65758;BME280;52495;52.208;5.158;2022-10-18T07:21:52;102722.66;;;12.25;97.46
65758;BME280;52495;52.208;5.158;2022-10-18T07:24:19;102726.09;;;12.24;97.36
65758;BME280;52495;52.208;5.158;2022-10-18T07:26:45;102731.31;;;12.27;97.60
65758;BME280;52495;52.208;5.158;2022-10-18T07:29:12;102730.44;;;12.25;97.15
65758;BME280;52495;52.208;5.158;2022-10-18T07:31:38;102735.63;;;12.28;97.17
65758;BME280;52495;52.208;5.158;2022-10-18T07:34:07;102733.06;;;12.29;97.18
65758;BME280;52495;52.208;5.158;2022-10-18T07:36:34;102738.25;;;12.33;97.32
65758;BME280;52495;52.208;5.158;2022-10-18T07:39:00;102741.72;;;12.35;97.10
65758;BME280;52495;52.208;5.158;2022-10-18T07:41:27;102736.53;;;12.35;97.17
65758;BME280;52495;52.208;5.158;2022-10-18T07:43:54;102735.69;;;12.39;96.90
65758;BME280;52495;52.208;5.158;2022-10-18T07:46:20;102732.25;;;12.40;96.96
65758;BME280;52495;52.208;5.158;2022-10-18T07:48:47;102741.75;;;12.42;97.08
65758;BME280;52495;52.208;5.158;2022-10-18T07:51:16;102754.72;;;12.41;97.01
65758;BME280;52495;52.208;5.158;2022-10-18T07:53:43;102756.44;;;12.43;97.68
65758;BME280;52495;52.208;5.158;2022-10-18T07:56:10;102760.78;;;12.46;97.94
65758;BME280;52495;52.208;5.158;2022-10-18T07:58:40;102755.63;;;12.46;98.36
65758;BME280;52495;52.208;5.158;2022-10-18T08:01:07;102765.13;;;12.50;98.67
65758;BME280;52495;52.208;5.158;2022-10-18T08:03:34;102764.28;;;12.56;98.63
65758;BME280;52495;52.208;5.158;2022-10-18T08:06:01;102758.28;;;12.63;98.74
65758;BME280;52495;52.208;5.158;2022-10-18T08:08:29;102747.09;;;12.67;98.69
65758;BME280;52495;52.208;5.158;2022-10-18T08:11:01;102755.75;;;12.74;98.70
65758;BME280;52495;52.208;5.158;2022-10-18T08:13:27;102750.59;;;12.77;99.33
65758;BME280;52495;52.208;5.158;2022-10-18T08:15:57;102752.34;;;12.83;99.29
65758;BME280;52495;52.208;5.158;2022-10-18T08:18:24;102757.53;;;12.90;99.52
65758;BME280;52495;52.208;5.158;2022-10-18T08:20:51;102763.63;;;12.97;99.29
65758;BME280;52495;52.208;5.158;2022-10-18T08:23:17;102758.44;;;13.02;99.67
65758;BME280;52495;52.208;5.158;2022-10-18T08:25:45;102754.13;;;13.09;99.55
65758;BME280;52495;52.208;5.158;2022-10-18T08:28:12;102760.19;;;13.15;99.61
65758;BME280;52495;52.208;5.158;2022-10-18T08:30:38;102755.91;;;13.20;99.77
65758;BME280;52495;52.208;5.158;2022-10-18T08:33:05;102755.06;;;13.25;99.26
65758;BME280;52495;52.208;5.158;2022-10-18T08:35:35;102755.06;;;13.28;99.58
65758;BME280;52495;52.208;5.158;2022-10-18T08:38:02;102760.25;;;13.32;99.67
65758;BME280;52495;52.208;5.158;2022-10-18T08:40:28;102760.28;;;13.39;99.95
65758;BME280;52495;52.208;5.158;2022-10-18T08:43:01;102762.91;;;13.45;100.00
65758;BME280;52495;52.208;5.158;2022-10-18T08:45:28;102766.38;;;13.50;100.00
65758;BME280;52495;52.208;5.158;2022-10-18T08:47:56;102765.53;;;13.57;100.00
65758;BME280;52495;52.208;5.158;2022-10-18T08:50:23;102763.81;;;13.64;100.00
65758;BME280;52495;52.208;5.158;2022-10-18T08:52:52;102762.94;;;13.71;100.00
65758;BME280;52495;52.208;5.158;2022-10-18T08:55:23;102772.47;;;13.80;100.00
65758;BME280;52495;52.208;5.158;2022-10-18T08:57:51;102771.59;;;13.86;100.00
65758;BME280;52495;52.208;5.158;2022-10-18T09:00:20;102771.59;;;13.92;100.00
65758;BME280;52495;52.208;5.158;2022-10-18T09:02:51;102772.47;;;14.00;100.00
65758;BME280;52495;52.208;5.158;2022-10-18T09:05:21;102768.13;;;14.08;100.00
65758;BME280;52495;52.208;5.158;2022-10-18T09:10:39;102775.91;;;14.22;100.00
65758;BME280;52495;52.208;5.158;2022-10-18T09:13:10;102772.44;;;14.26;100.00
65758;BME280;52495;52.208;5.158;2022-10-18T09:15:45;102784.56;;;14.32;100.00
65758;BME280;52495;52.208;5.158;2022-10-18T09:18:20;102786.28;;;14.39;99.39
65758;BME280;52495;52.208;5.158;2022-10-18T09:20:52;102794.06;;;14.46;99.48
65758;BME280;52495;52.208;5.158;2022-10-18T09:23:23;102800.97;;;14.53;98.99
65758;BME280;52495;52.208;5.158;2022-10-18T09:25:56;102800.13;;;14.59;97.72
65758;BME280;52495;52.208;5.158;2022-10-18T09:28:28;102792.28;;;14.63;96.82
65758;BME280;52495;52.208;5.158;2022-10-18T09:31:02;102797.47;;;14.76;97.37
65758;BME280;52495;52.208;5.158;2022-10-18T09:33:34;102795.69;;;14.87;97.19
65758;BME280;52495;52.208;5.158;2022-10-18T09:36:05;102787.84;;;14.98;97.28
65758;BME280;52495;52.208;5.158;2022-10-18T09:38:33;102788.69;;;15.08;97.02
65758;BME280;52495;52.208;5.158;2022-10-18T09:41:04;102786.06;;;15.17;95.96
65758;BME280;52495;52.208;5.158;2022-10-18T09:43:36;102792.06;;;15.22;94.26
65758;BME280;52495;52.208;5.158;2022-10-18T09:46:05;102797.22;;;15.30;93.35
65758;BME280;52495;52.208;5.158;2022-10-18T09:48:34;102800.69;;;15.37;92.68
65758;BME280;52495;52.208;5.158;2022-10-18T09:51:03;102806.75;;;15.40;89.32
65758;BME280;52495;52.208;5.158;2022-10-18T09:53:34;102801.53;;;15.39;87.14
65758;BME280;52495;52.208;5.158;2022-10-18T09:56:03;102808.41;;;15.47;88.34
65758;BME280;52495;52.208;5.158;2022-10-18T09:58:41;102804.94;;;15.53;87.64
65758;BME280;52495;52.208;5.158;2022-10-18T10:01:10;102812.69;;;15.56;86.11
65758;BME280;52495;52.208;5.158;2022-10-18T10:03:38;102805.72;;;15.65;86.21
65758;BME280;52495;52.208;5.158;2022-10-18T10:06:15;102814.31;;;15.74;86.04
65758;BME280;52495;52.208;5.158;2022-10-18T10:08:42;102811.69;;;15.79;85.12
65758;BME280;52495;52.208;5.158;2022-10-18T10:13:50;102818.59;;;15.88;85.88
65758;BME280;52495;52.208;5.158;2022-10-18T10:16:18;102825.53;;;15.92;81.71
65758;BME280;52495;52.208;5.158;2022-10-18T10:18:44;102825.50;;;15.93;78.70
65758;BME280;52495;52.208;5.158;2022-10-18T10:21:17;102827.13;;;16.07;80.45
65758;BME280;52495;52.208;5.158;2022-10-18T10:23:45;102821.06;;;16.03;78.57
65758;BME280;52495;52.208;5.158;2022-10-18T10:26:19;102825.34;;;16.12;77.31
65758;BME280;52495;52.208;5.158;2022-10-18T10:28:47;102828.00;;;16.07;74.38
65758;BME280;52495;52.208;5.158;2022-10-18T10:31:24;102827.97;;;16.11;75.49
65758;BME280;52495;52.208;5.158;2022-10-18T10:33:56;102822.75;;;16.09;73.25
65758;BME280;52495;52.208;5.158;2022-10-18T10:36:23;102824.53;;;16.05;73.03
65758;BME280;52495;52.208;5.158;2022-10-18T10:39:01;102831.44;;;16.11;71.30
65758;BME280;52495;52.208;5.158;2022-10-18T10:41:28;102831.44;;;16.11;71.46
65758;BME280;52495;52.208;5.158;2022-10-18T10:43:54;102835.72;;;16.17;71.37
65758;BME280;52495;52.208;5.158;2022-10-18T10:46:23;102836.56;;;16.19;70.96
65758;BME280;52495;52.208;5.158;2022-10-18T10:48:58;102840.84;;;16.28;71.87
65758;BME280;52495;52.208;5.158;2022-10-18T10:51:28;102831.38;;;16.19;69.54
65758;BME280;52495;52.208;5.158;2022-10-18T10:53:59;102828.69;;;16.27;71.56
65758;BME280;52495;52.208;5.158;2022-10-18T10:56:30;102826.94;;;16.29;70.08
65758;BME280;52495;52.208;5.158;2022-10-18T10:59:00;102834.69;;;16.38;70.18
65758;BME280;52495;52.208;5.158;2022-10-18T11:01:33;102839.81;;;16.44;68.71
65758;BME280;52495;52.208;5.158;2022-10-18T11:04:01;102834.63;;;16.41;68.44
65758;BME280;52495;52.208;5.158;2022-10-18T11:06:36;102832.81;;;16.49;68.16
65758;BME280;52495;52.208;5.158;2022-10-18T11:09:07;102827.59;;;16.49;68.40
65758;BME280;52495;52.208;5.158;2022-10-18T11:11:37;102841.50;;;16.51;68.15
65758;BME280;52495;52.208;5.158;2022-10-18T11:14:08;102846.75;;;16.48;66.96
65758;BME280;52495;52.208;5.158;2022-10-18T11:16:41;102846.63;;;16.59;67.77
65758;BME280;52495;52.208;5.158;2022-10-18T11:19:19;102846.75;;;16.48;65.08
65758;BME280;52495;52.208;5.158;2022-10-18T11:21:52;102849.38;;;16.47;63.35
65758;BME280;52495;52.208;5.158;2022-10-18T11:24:19;102842.31;;;16.55;64.01
65758;BME280;52495;52.208;5.158;2022-10-18T11:26:46;102840.56;;;16.57;64.43
65758;BME280;52495;52.208;5.158;2022-10-18T11:29:21;102845.69;;;16.68;65.59
65758;BME280;52495;52.208;5.158;2022-10-18T11:31:54;102850.78;;;16.77;65.43
65758;BME280;52495;52.208;5.158;2022-10-18T11:34:37;102853.34;;;16.80;63.16
65758;BME280;52495;52.208;5.158;2022-10-18T11:37:10;102855.94;;;16.83;64.17
65758;BME280;52495;52.208;5.158;2022-10-18T11:39:42;102849.91;;;16.78;64.06
65758;BME280;52495;52.208;5.158;2022-10-18T11:42:15;102842.00;;;16.84;64.97
65758;BME280;52495;52.208;5.158;2022-10-18T11:44:45;102854.16;;;16.89;64.18
65758;BME280;52495;52.208;5.158;2022-10-18T11:47:17;102843.78;;;16.82;63.82
65758;BME280;52495;52.208;5.158;2022-10-18T11:50:02;102843.63;;;16.98;63.80
65758;BME280;52495;52.208;5.158;2022-10-18T11:52:32;102853.22;;;16.97;64.45
65758;BME280;52495;52.208;5.158;2022-10-18T11:55:14;102852.31;;;17.00;64.12
65758;BME280;52495;52.208;5.158;2022-10-18T11:57:47;102841.88;;;17.00;63.67
65758;BME280;52495;52.208;5.158;2022-10-18T12:00:21;102842.75;;;16.99;63.17
65758;BME280;52495;52.208;5.158;2022-10-18T12:03:02;102840.97;;;17.01;63.10
65758;BME280;52495;52.208;5.158;2022-10-18T12:05:33;102842.59;;;17.13;63.28
65758;BME280;52495;52.208;5.158;2022-10-18T12:08:01;102845.19;;;17.13;63.88
65758;BME280;52495;52.208;5.158;2022-10-18T12:10:31;102844.31;;;17.12;63.91
65758;BME280;52495;52.208;5.158;2022-10-18T12:12:58;102840.84;;;17.10;64.70
65758;BME280;52495;52.208;5.158;2022-10-18T12:15:27;102824.22;;;17.19;64.35
65758;BME280;52495;52.208;5.158;2022-10-18T12:17:54;102826.78;;;17.22;64.59
65758;BME280;52495;52.208;5.158;2022-10-18T12:20:24;102825.69;;;17.39;63.95
65758;BME280;52495;52.208;5.158;2022-10-18T12:22:53;102821.56;;;17.22;62.39
65758;BME280;52495;52.208;5.158;2022-10-18T12:25:21;102822.28;;;17.34;64.15
65758;BME280;52495;52.208;5.158;2022-10-18T12:27:51;102823.16;;;17.34;62.95
65758;BME280;52495;52.208;5.158;2022-10-18T12:30:19;102825.72;;;17.37;63.55
65758;BME280;52495;52.208;5.158;2022-10-18T12:32:49;102808.22;;;17.42;63.77
65758;BME280;52495;52.208;5.158;2022-10-18T12:35:21;102818.81;;;17.33;62.92
65758;BME280;52495;52.208;5.158;2022-10-18T12:37:53;102815.19;;;17.43;63.35
65758;BME280;52495;52.208;5.158;2022-10-18T12:40:28;102817.75;;;17.47;63.81
65758;BME280;52495;52.208;5.158;2022-10-18T12:42:58;102816.63;;;17.63;62.10
65758;BME280;52495;52.208;5.158;2022-10-18T12:45:26;102814.25;;;17.48;61.65
65758;BME280;52495;52.208;5.158;2022-10-18T12:47:53;102807.38;;;17.42;60.79
65758;BME280;52495;52.208;5.158;2022-10-18T12:50:26;102811.59;;;17.51;61.86
65758;BME280;52495;52.208;5.158;2022-10-18T12:53:01;102808.06;;;17.55;60.79
65758;BME280;52495;52.208;5.158;2022-10-18T12:55:29;102802.69;;;17.64;61.60
65758;BME280;52495;52.208;5.158;2022-10-18T12:58:00;102814.88;;;17.65;61.80
65758;BME280;52495;52.208;5.158;2022-10-18T13:05:59;102799.03;;;17.76;61.90
65758;BME280;52495;52.208;5.158;2022-10-18T13:08:36;102793.19;;;17.58;61.14
65758;BME280;52495;52.208;5.158;2022-10-18T13:13:51;102789.53;;;17.70;62.29